sensor_id;sensor_type;location;lat;lon;timestamp;temperature;humidity
17053;DHT22;8643;48.824;11.422;2023-03-05T00:01:42;1.10;99.90
17053;DHT22;8643;48.824;11.422;2023-03-05T00:04:13;1.10;99.90
17053;DHT22;8643;48.824;11.422;2023-03-05T00:06:42;1.00;99.90
17053;DHT22;8643;48.824;11.422;2023-03-05T00:09:10;1.10;99.90
17053;DHT22;8643;48.824;11.422;2023-03-05T00:11:43;1.10;99.90
17053;DHT22;8643;48.824;11.422;2023-03-05T00:14:12;1.10;99.90
17053;DHT22;8643;48.824;11.422;2023-03-05T00:16:41;1.10;99.90
17053;DHT22;8643;48.824;11.422;2023-03-05T00:19:10;1.10;99.90
17053;DHT22;8643;48.824;11.422;2023-03-05T00:21:40;1.20;99.90
17053;DHT22;8643;48.824;11.422;2023-03-05T00:24:12;1.20;99.90
17053;DHT22;8643;48.824;11.422;2023-03-05T00:26:45;1.20;99.90
17053;DHT22;8643;48.824;11.422;2023-03-05T00:29:16;1.10;99.90
17053;DHT22;8643;48.824;11.422;2023-03-05T00:31:49;1.10;99.90
17053;DHT22;8643;48.824;11.422;2023-03-05T00:34:18;1.20;99.90
17053;DHT22;8643;48.824;11.422;2023-03-05T00:36:50;1.10;99.90
17053;DHT22;8643;48.824;11.422;2023-03-05T00:39:20;0.50;99.90
17053;DHT22;8643;48.824;11.422;2023-03-05T00:41:50;1.30;99.90
17053;DHT22;8643;48.824;11.422;2023-03-05T00:46:49;1.20;99.90
17053;DHT22;8643;48.824;11.422;2023-03-05T00:49:17;1.30;99.90
17053;DHT22;8643;48.824;11.422;2023-03-05T00:51:46;1.30;99.90
17053;DHT22;8643;48.824;11.422;2023-03-05T00:54:15;1.30;99.90
17053;DHT22;8643;48.824;11.422;2023-03-05T00:56:43;1.30;99.90
17053;DHT22;8643;48.824;11.422;2023-03-05T00:59:17;1.30;99.90
17053;DHT22;8643;48.824;11.422;2023-03-05T01:04:14;1.20;99.90
17053;DHT22;8643;48.824;11.422;2023-03-05T01:06:42;0.80;99.90
17053;DHT22;8643;48.824;11.422;2023-03-05T01:09:12;1.20;99.90
17053;DHT22;8643;48.824;11.422;2023-03-05T01:11:41;1.10;99.90
17053;DHT22;8643;48.824;11.422;2023-03-05T01:14:10;1.10;99.90
17053;DHT22;8643;48.824;11.422;2023-03-05T01:16:39;1.10;99.90
17053;DHT22;8643;48.824;11.422;2023-03-05T01:19:09;0.90;99.90
17053;DHT22;8643;48.824;11.422;2023-03-05T01:21:38;1.20;99.90
17053;DHT22;8643;48.824;11.422;2023-03-05T01:24:07;1.40;99.90
17053;DHT22;8643;48.824;11.422;2023-03-05T01:26:36;1.20;99.90
17053;DHT22;8643;48.824;11.422;2023-03-05T01:29:05;1.10;99.90
17053;DHT22;8643;48.824;11.422;2023-03-05T01:31:33;1.10;99.90
17053;DHT22;8643;48.824;11.422;2023-03-05T01:34:03;1.10;99.90
17053;DHT22;8643;48.824;11.422;2023-03-05T01:36:32;1.10;99.90
17053;DHT22;8643;48.824;11.422;2023-03-05T01:39:00;1.10;99.90
17053;DHT22;8643;48.824;11.422;2023-03-05T01:41:33;1.20;99.90
17053;DHT22;8643;48.824;11.422;2023-03-05T01:44:02;1.20;99.90
17053;DHT22;8643;48.824;11.422;2023-03-05T01:46:33;1.30;99.90
17053;DHT22;8643;48.824;11.422;2023-03-05T01:49:14;1.30;99.90
17053;DHT22;8643;48.824;11.422;2023-03-05T01:51:52;1.20;99.90
17053;DHT22;8643;48.824;11.422;2023-03-05T01:54:28;1.10;99.90
17053;DHT22;8643;48.824;11.422;2023-03-05T01:57:05;1.20;99.90
17053;DHT22;8643;48.824;11.422;2023-03-05T01:59:38;1.20;99.90
17053;DHT22;8643;48.824;11.422;2023-03-05T02:02:09;1.20;99.90
17053;DHT22;8643;48.824;11.422;2023-03-05T02:04:42;1.20;99.90
17053;DHT22;8643;48.824;11.422;2023-03-05T02:09:42;1.20;99.90
17053;DHT22;8643;48.824;11.422;2023-03-05T02:12:12;1.20;99.90
17053;DHT22;8643;48.824;11.422;2023-03-05T02:14:44;1.20;99.90
17053;DHT22;8643;48.824;11.422;2023-03-05T02:17:15;1.30;99.90
17053;DHT22;8643;48.824;11.422;2023-03-05T02:19:51;1.30;99.90
17053;DHT22;8643;48.824;11.422;2023-03-05T02:22:23;1.20;99.90
17053;DHT22;8643;48.824;11.422;2023-03-05T02:27:24;1.20;99.90
17053;DHT22;8643;48.824;11.422;2023-03-05T02:30:01;1.10;99.90
17053;DHT22;8643;48.824;11.422;2023-03-05T02:32:30;1.10;99.90
17053;DHT22;8643;48.824;11.422;2023-03-05T02:34:59;1.00;99.90
17053;DHT22;8643;48.824;11.422;2023-03-05T02:37:32;1.00;99.90
17053;DHT22;8643;48.824;11.422;2023-03-05T02:40:01;1.10;99.90
17053;DHT22;8643;48.824;11.422;2023-03-05T02:42:29;1.10;99.90
17053;DHT22;8643;48.824;11.422;2023-03-05T02:45:00;1.00;99.90
17053;DHT22;8643;48.824;11.422;2023-03-05T02:49:58;1.10;99.90
17053;DHT22;8643;48.824;11.422;2023-03-05T02:52:29;1.10;99.90
17053;DHT22;8643;48.824;11.422;2023-03-05T02:57:29;1.10;99.90
17053;DHT22;8643;48.824;11.422;2023-03-05T02:59:57;1.10;99.90
17053;DHT22;8643;48.824;11.422;2023-03-05T03:02:26;1.00;99.90
17053;DHT22;8643;48.824;11.422;2023-03-05T03:04:54;1.00;99.90
17053;DHT22;8643;48.824;11.422;2023-03-05T03:07:23;1.00;99.90
17053;DHT22;8643;48.824;11.422;2023-03-05T03:09:53;1.00;99.90
17053;DHT22;8643;48.824;11.422;2023-03-05T03:12:25;1.10;99.90
17053;DHT22;8643;48.824;11.422;2023-03-05T03:17:22;1.10;99.90
17053;DHT22;8643;48.824;11.422;2023-03-05T03:19:50;1.10;99.90
17053;DHT22;8643;48.824;11.422;2023-03-05T03:22:18;1.00;99.90
17053;DHT22;8643;48.824;11.422;2023-03-05T03:24:48;1.10;99.90
17053;DHT22;8643;48.824;11.422;2023-03-05T03:27:17;2.20;99.90
17053;DHT22;8643;48.824;11.422;2023-03-05T03:29:45;1.10;99.90
17053;DHT22;8643;48.824;11.422;2023-03-05T03:32:14;1.10;99.90
17053;DHT22;8643;48.824;11.422;2023-03-05T03:34:42;1.10;99.90
17053;DHT22;8643;48.824;11.422;2023-03-05T03:37:11;1.00;99.90
17053;DHT22;8643;48.824;11.422;2023-03-05T03:39:40;1.10;99.90
17053;DHT22;8643;48.824;11.422;2023-03-05T03:44:38;1.00;99.90
17053;DHT22;8643;48.824;11.422;2023-03-05T03:52:04;1.90;99.90
17053;DHT22;8643;48.824;11.422;2023-03-05T03:54:33;1.00;99.90
17053;DHT22;8643;48.824;11.422;2023-03-05T03:57:02;1.00;99.90
17053;DHT22;8643;48.824;11.422;2023-03-05T03:59:30;1.00;99.90
17053;DHT22;8643;48.824;11.422;2023-03-05T04:02:00;1.10;99.90
17053;DHT22;8643;48.824;11.422;2023-03-05T04:04:28;1.10;99.90
17053;DHT22;8643;48.824;11.422;2023-03-05T04:06:57;1.10;99.90
17053;DHT22;8643;48.824;11.422;2023-03-05T04:09:25;1.10;99.90
17053;DHT22;8643;48.824;11.422;2023-03-05T04:11:53;3.50;99.90
17053;DHT22;8643;48.824;11.422;2023-03-05T04:14:22;1.10;99.90
17053;DHT22;8643;48.824;11.422;2023-03-05T04:16:52;1.10;99.90
17053;DHT22;8643;48.824;11.422;2023-03-05T04:19:25;1.10;99.90
17053;DHT22;8643;48.824;11.422;2023-03-05T04:21:59;1.20;99.90
17053;DHT22;8643;48.824;11.422;2023-03-05T04:24:28;1.10;99.90
17053;DHT22;8643;48.824;11.422;2023-03-05T04:26:56;1.10;99.90
17053;DHT22;8643;48.824;11.422;2023-03-05T04:29:26;1.10;99.90
17053;DHT22;8643;48.824;11.422;2023-03-05T04:31:54;1.00;99.90
17053;DHT22;8643;48.824;11.422;2023-03-05T04:34:23;1.10;99.90
17053;DHT22;8643;48.824;11.422;2023-03-05T04:36:53;1.10;99.90
17053;DHT22;8643;48.824;11.422;2023-03-05T04:39:21;1.10;99.90
17053;DHT22;8643;48.824;11.422;2023-03-05T04:41:49;1.00;99.90
17053;DHT22;8643;48.824;11.422;2023-03-05T04:44:18;1.10;99.90
17053;DHT22;8643;48.824;11.422;2023-03-05T04:46:49;1.10;99.90
17053;DHT22;8643;48.824;11.422;2023-03-05T04:49:17;1.10;99.90
17053;DHT22;8643;48.824;11.422;2023-03-05T04:51:47;1.00;99.90
17053;DHT22;8643;48.824;11.422;2023-03-05T04:56:44;1.10;99.90
17053;DHT22;8643;48.824;11.422;2023-03-05T05:01:41;1.30;99.90
17053;DHT22;8643;48.824;11.422;2023-03-05T05:04:09;1.10;99.90
17053;DHT22;8643;48.824;11.422;2023-03-05T05:06:38;1.10;99.90
17053;DHT22;8643;48.824;11.422;2023-03-05T05:09:08;1.00;99.90
17053;DHT22;8643;48.824;11.422;2023-03-05T05:11:36;1.00;99.90
17053;DHT22;8643;48.824;11.422;2023-03-05T05:14:05;0.90;99.90
17053;DHT22;8643;48.824;11.422;2023-03-05T05:16:34;1.00;99.90
17053;DHT22;8643;48.824;11.422;2023-03-05T05:19:02;1.00;99.90
17053;DHT22;8643;48.824;11.422;2023-03-05T05:21:31;1.10;99.90
17053;DHT22;8643;48.824;11.422;2023-03-05T05:23:59;1.00;99.90
17053;DHT22;8643;48.824;11.422;2023-03-05T05:26:29;1.10;99.90
17053;DHT22;8643;48.824;11.422;2023-03-05T05:29:01;1.00;99.90
17053;DHT22;8643;48.824;11.422;2023-03-05T05:31:30;0.90;99.90
17053;DHT22;8643;48.824;11.422;2023-03-05T05:33:58;0.90;99.90
17053;DHT22;8643;48.824;11.422;2023-03-05T05:38:55;0.90;99.90
17053;DHT22;8643;48.824;11.422;2023-03-05T05:41:28;1.00;99.90
17053;DHT22;8643;48.824;11.422;2023-03-05T05:43:57;0.90;99.90
17053;DHT22;8643;48.824;11.422;2023-03-05T05:46:25;1.00;99.90
17053;DHT22;8643;48.824;11.422;2023-03-05T05:48:54;1.00;99.90
17053;DHT22;8643;48.824;11.422;2023-03-05T05:51:23;2.10;99.90
17053;DHT22;8643;48.824;11.422;2023-03-05T05:56:20;1.00;99.90
17053;DHT22;8643;48.824;11.422;2023-03-05T05:58:50;1.00;99.90
17053;DHT22;8643;48.824;11.422;2023-03-05T06:01:21;1.00;99.90
17053;DHT22;8643;48.824;11.422;2023-03-05T06:03:51;1.00;99.90
17053;DHT22;8643;48.824;11.422;2023-03-05T06:06:21;0.90;99.90
17053;DHT22;8643;48.824;11.422;2023-03-05T06:08:51;0.90;99.90
17053;DHT22;8643;48.824;11.422;2023-03-05T06:11:21;0.90;99.90
17053;DHT22;8643;48.824;11.422;2023-03-05T06:13:51;0.80;99.90
17053;DHT22;8643;48.824;11.422;2023-03-05T06:16:21;2.20;99.90
17053;DHT22;8643;48.824;11.422;2023-03-05T06:18:52;0.90;99.90
17053;DHT22;8643;48.824;11.422;2023-03-05T06:21:21;1.00;99.90
17053;DHT22;8643;48.824;11.422;2023-03-05T06:23:50;1.00;99.90
17053;DHT22;8643;48.824;11.422;2023-03-05T06:26:21;1.00;99.90
17053;DHT22;8643;48.824;11.422;2023-03-05T06:31:22;1.10;99.90
17053;DHT22;8643;48.824;11.422;2023-03-05T06:33:53;1.10;99.90
17053;DHT22;8643;48.824;11.422;2023-03-05T06:36:24;1.20;99.90
17053;DHT22;8643;48.824;11.422;2023-03-05T06:38:53;1.30;99.90
17053;DHT22;8643;48.824;11.422;2023-03-05T06:41:23;1.10;99.90
17053;DHT22;8643;48.824;11.422;2023-03-05T06:43:55;1.20;99.90
17053;DHT22;8643;48.824;11.422;2023-03-05T06:46:25;1.20;99.90
17053;DHT22;8643;48.824;11.422;2023-03-05T06:48:56;1.30;99.90
17053;DHT22;8643;48.824;11.422;2023-03-05T06:51:28;1.20;99.90
17053;DHT22;8643;48.824;11.422;2023-03-05T06:53:59;1.30;99.90
17053;DHT22;8643;48.824;11.422;2023-03-05T06:56:29;1.30;99.90
17053;DHT22;8643;48.824;11.422;2023-03-05T06:59:00;1.30;99.90
17053;DHT22;8643;48.824;11.422;2023-03-05T07:01:28;1.30;99.90
17053;DHT22;8643;48.824;11.422;2023-03-05T07:03:56;0.60;99.90
17053;DHT22;8643;48.824;11.422;2023-03-05T07:06:26;1.30;99.90
17053;DHT22;8643;48.824;11.422;2023-03-05T07:08:56;1.40;99.90
17053;DHT22;8643;48.824;11.422;2023-03-05T07:11:27;1.40;99.90
17053;DHT22;8643;48.824;11.422;2023-03-05T07:13:56;1.40;99.90
17053;DHT22;8643;48.824;11.422;2023-03-05T07:16:29;1.40;99.90
17053;DHT22;8643;48.824;11.422;2023-03-05T07:19:02;1.40;99.90
17053;DHT22;8643;48.824;11.422;2023-03-05T07:21:34;1.40;99.90
17053;DHT22;8643;48.824;11.422;2023-03-05T07:24:06;1.50;99.90
17053;DHT22;8643;48.824;11.422;2023-03-05T07:26:35;1.20;99.90
17053;DHT22;8643;48.824;11.422;2023-03-05T07:29:03;3.40;99.90
17053;DHT22;8643;48.824;11.422;2023-03-05T07:31:36;1.40;99.90
17053;DHT22;8643;48.824;11.422;2023-03-05T07:34:06;1.20;99.90
17053;DHT22;8643;48.824;11.422;2023-03-05T07:39:04;1.40;99.90
17053;DHT22;8643;48.824;11.422;2023-03-05T07:41:33;1.50;99.90
17053;DHT22;8643;48.824;11.422;2023-03-05T07:44:01;1.50;99.90
17053;DHT22;8643;48.824;11.422;2023-03-05T07:46:32;1.60;99.90
17053;DHT22;8643;48.824;11.422;2023-03-05T07:49:02;1.60;99.90
17053;DHT22;8643;48.824;11.422;2023-03-05T07:51:31;1.60;99.90
17053;DHT22;8643;48.824;11.422;2023-03-05T07:53:59;1.60;99.90
17053;DHT22;8643;48.824;11.422;2023-03-05T07:56:29;1.70;99.90
17053;DHT22;8643;48.824;11.422;2023-03-05T07:59:02;1.70;99.90
17053;DHT22;8643;48.824;11.422;2023-03-05T08:01:32;1.90;99.90
17053;DHT22;8643;48.824;11.422;2023-03-05T08:04:03;1.90;99.90
17053;DHT22;8643;48.824;11.422;2023-03-05T08:06:33;1.90;99.90
17053;DHT22;8643;48.824;11.422;2023-03-05T08:09:01;2.20;99.90
17053;DHT22;8643;48.824;11.422;2023-03-05T08:11:30;2.00;99.90
17053;DHT22;8643;48.824;11.422;2023-03-05T08:13:58;1.60;99.90
17053;DHT22;8643;48.824;11.422;2023-03-05T08:16:27;2.10;99.90
17053;DHT22;8643;48.824;11.422;2023-03-05T08:18:56;2.10;99.90
17053;DHT22;8643;48.824;11.422;2023-03-05T08:21:27;2.20;99.90
17053;DHT22;8643;48.824;11.422;2023-03-05T08:24:00;2.30;99.90
17053;DHT22;8643;48.824;11.422;2023-03-05T08:26:31;2.30;99.90
17053;DHT22;8643;48.824;11.422;2023-03-05T08:29:00;2.30;99.90
17053;DHT22;8643;48.824;11.422;2023-03-05T08:31:30;2.40;99.90
17053;DHT22;8643;48.824;11.422;2023-03-05T08:34:00;2.40;99.90
17053;DHT22;8643;48.824;11.422;2023-03-05T08:36:31;2.50;99.90
17053;DHT22;8643;48.824;11.422;2023-03-05T08:39:00;2.50;99.90
17053;DHT22;8643;48.824;11.422;2023-03-05T08:41:29;2.60;99.90
17053;DHT22;8643;48.824;11.422;2023-03-05T08:43:58;2.70;99.90
17053;DHT22;8643;48.824;11.422;2023-03-05T08:46:27;2.70;99.90
17053;DHT22;8643;48.824;11.422;2023-03-05T08:48:55;2.70;99.90
17053;DHT22;8643;48.824;11.422;2023-03-05T08:51:25;2.80;99.90
17053;DHT22;8643;48.824;11.422;2023-03-05T08:53:57;2.90;99.90
17053;DHT22;8643;48.824;11.422;2023-03-05T08:56:26;4.00;99.90
17053;DHT22;8643;48.824;11.422;2023-03-05T08:58:57;3.50;99.90
17053;DHT22;8643;48.824;11.422;2023-03-05T09:01:25;3.00;99.90
17053;DHT22;8643;48.824;11.422;2023-03-05T09:03:54;2.90;99.90
17053;DHT22;8643;48.824;11.422;2023-03-05T09:06:22;3.00;99.90
17053;DHT22;8643;48.824;11.422;2023-03-05T09:08:51;3.00;99.90
17053;DHT22;8643;48.824;11.422;2023-03-05T09:11:21;3.70;99.90
17053;DHT22;8643;48.824;11.422;2023-03-05T09:13:50;3.00;99.90
17053;DHT22;8643;48.824;11.422;2023-03-05T09:16:18;3.00;99.90
17053;DHT22;8643;48.824;11.422;2023-03-05T09:18:48;3.30;99.90
17053;DHT22;8643;48.824;11.422;2023-03-05T09:23:46;3.10;99.90
17053;DHT22;8643;48.824;11.422;2023-03-05T09:26:15;3.20;99.90
17053;DHT22;8643;48.824;11.422;2023-03-05T09:28:47;3.10;99.90
17053;DHT22;8643;48.824;11.422;2023-03-05T09:33:46;3.30;99.90
17053;DHT22;8643;48.824;11.422;2023-03-05T09:36:18;3.30;99.90
17053;DHT22;8643;48.824;11.422;2023-03-05T09:38:47;3.30;99.90
17053;DHT22;8643;48.824;11.422;2023-03-05T09:41:23;3.40;99.90
17053;DHT22;8643;48.824;11.422;2023-03-05T09:44:09;3.40;99.90
17053;DHT22;8643;48.824;11.422;2023-03-05T09:46:51;3.40;99.90
17053;DHT22;8643;48.824;11.422;2023-03-05T09:49:31;3.40;99.90
17053;DHT22;8643;48.824;11.422;2023-03-05T09:52:13;3.40;99.90
17053;DHT22;8643;48.824;11.422;2023-03-05T09:54:52;3.40;99.90
17053;DHT22;8643;48.824;11.422;2023-03-05T09:57:26;3.50;99.90
17053;DHT22;8643;48.824;11.422;2023-03-05T10:00:06;3.50;99.90
17053;DHT22;8643;48.824;11.422;2023-03-05T10:02:51;3.50;99.90
17053;DHT22;8643;48.824;11.422;2023-03-05T10:05:42;3.50;99.90
17053;DHT22;8643;48.824;11.422;2023-03-05T10:08:20;4.50;99.90
17053;DHT22;8643;48.824;11.422;2023-03-05T10:10:54;3.60;99.90
17053;DHT22;8643;48.824;11.422;2023-03-05T10:13:24;3.60;99.90
17053;DHT22;8643;48.824;11.422;2023-03-05T10:16:04;3.70;99.90
17053;DHT22;8643;48.824;11.422;2023-03-05T10:18:55;4.30;99.90
17053;DHT22;8643;48.824;11.422;2023-03-05T10:21:37;3.70;99.90
17053;DHT22;8643;48.824;11.422;2023-03-05T10:24:14;3.80;99.90
17053;DHT22;8643;48.824;11.422;2023-03-05T10:26:57;3.80;99.90
17053;DHT22;8643;48.824;11.422;2023-03-05T10:29:43;3.70;99.90
17053;DHT22;8643;48.824;11.422;2023-03-05T10:32:31;3.60;99.90
17053;DHT22;8643;48.824;11.422;2023-03-05T10:35:21;3.70;99.90
17053;DHT22;8643;48.824;11.422;2023-03-05T10:38:24;3.70;99.90
17053;DHT22;8643;48.824;11.422;2023-03-05T10:41:26;3.70;99.90
17053;DHT22;8643;48.824;11.422;2023-03-05T10:44:03;4.60;99.90
17053;DHT22;8643;48.824;11.422;2023-03-05T10:46:38;3.90;99.90
17053;DHT22;8643;48.824;11.422;2023-03-05T10:49:16;3.90;99.90
17053;DHT22;8643;48.824;11.422;2023-03-05T10:51:50;3.90;99.90
17053;DHT22;8643;48.824;11.422;2023-03-05T10:54:26;4.00;99.90
17053;DHT22;8643;48.824;11.422;2023-03-05T10:57:02;4.00;99.90
17053;DHT22;8643;48.824;11.422;2023-03-05T10:59:32;4.00;99.90
17053;DHT22;8643;48.824;11.422;2023-03-05T11:02:02;4.00;99.90
17053;DHT22;8643;48.824;11.422;2023-03-05T11:04:38;4.00;99.90
17053;DHT22;8643;48.824;11.422;2023-03-05T11:07:32;4.10;99.90
17053;DHT22;8643;48.824;11.422;2023-03-05T11:10:15;4.20;99.90
17053;DHT22;8643;48.824;11.422;2023-03-05T11:12:47;4.20;99.90
17053;DHT22;8643;48.824;11.422;2023-03-05T11:15:26;4.20;99.90
17053;DHT22;8643;48.824;11.422;2023-03-05T11:18:06;4.30;99.90
17053;DHT22;8643;48.824;11.422;2023-03-05T11:20:48;4.30;99.90
17053;DHT22;8643;48.824;11.422;2023-03-05T11:23:19;4.20;99.90
17053;DHT22;8643;48.824;11.422;2023-03-05T11:26:00;4.00;99.90
17053;DHT22;8643;48.824;11.422;2023-03-05T11:28:32;2.90;99.90
17053;DHT22;8643;48.824;11.422;2023-03-05T11:31:06;4.00;99.90
17053;DHT22;8643;48.824;11.422;2023-03-05T11:33:55;4.00;99.90
17053;DHT22;8643;48.824;11.422;2023-03-05T11:36:28;3.90;99.90
17053;DHT22;8643;48.824;11.422;2023-03-05T11:39:06;3.80;99.90
17053;DHT22;8643;48.824;11.422;2023-03-05T11:41:39;4.70;99.90
17053;DHT22;8643;48.824;11.422;2023-03-05T11:44:13;3.80;99.90
17053;DHT22;8643;48.824;11.422;2023-03-05T11:46:47;3.60;99.90
17053;DHT22;8643;48.824;11.422;2023-03-05T11:49:20;3.70;99.90
17053;DHT22;8643;48.824;11.422;2023-03-05T11:51:59;3.60;99.90
17053;DHT22;8643;48.824;11.422;2023-03-05T11:54:39;3.60;99.90
17053;DHT22;8643;48.824;11.422;2023-03-05T11:57:17;3.60;99.90
17053;DHT22;8643;48.824;11.422;2023-03-05T11:59:48;4.40;99.90
17053;DHT22;8643;48.824;11.422;2023-03-05T12:02:22;3.60;99.90
17053;DHT22;8643;48.824;11.422;2023-03-05T12:04:52;3.70;99.90
17053;DHT22;8643;48.824;11.422;2023-03-05T12:07:29;3.70;99.90
17053;DHT22;8643;48.824;11.422;2023-03-05T12:10:03;3.70;99.90
17053;DHT22;8643;48.824;11.422;2023-03-05T12:12:37;3.60;99.90
17053;DHT22;8643;48.824;11.422;2023-03-05T12:15:31;3.70;99.90
17053;DHT22;8643;48.824;11.422;2023-03-05T12:18:19;3.70;99.90
17053;DHT22;8643;48.824;11.422;2023-03-05T12:21:03;3.80;99.90
17053;DHT22;8643;48.824;11.422;2023-03-05T12:23:47;3.90;99.90
17053;DHT22;8643;48.824;11.422;2023-03-05T12:26:17;3.90;99.90
17053;DHT22;8643;48.824;11.422;2023-03-05T12:29:30;3.90;99.90
17053;DHT22;8643;48.824;11.422;2023-03-05T12:35:30;3.80;99.90
17053;DHT22;8643;48.824;11.422;2023-03-05T12:38:27;3.70;99.90
17053;DHT22;8643;48.824;11.422;2023-03-05T12:44:20;3.60;99.90
17053;DHT22;8643;48.824;11.422;2023-03-05T12:47:15;3.90;99.90
17053;DHT22;8643;48.824;11.422;2023-03-05T12:49:50;3.40;99.90
17053;DHT22;8643;48.824;11.422;2023-03-05T12:52:23;3.40;99.90
17053;DHT22;8643;48.824;11.422;2023-03-05T12:55:14;3.30;99.90
17053;DHT22;8643;48.824;11.422;2023-03-05T12:57:57;3.30;99.90
17053;DHT22;8643;48.824;11.422;2023-03-05T13:00:36;3.30;99.90
17053;DHT22;8643;48.824;11.422;2023-03-05T13:03:15;3.30;99.90
17053;DHT22;8643;48.824;11.422;2023-03-05T13:05:48;3.30;99.90
17053;DHT22;8643;48.824;11.422;2023-03-05T13:08:21;3.30;99.90
17053;DHT22;8643;48.824;11.422;2023-03-05T13:10:53;3.30;99.90
17053;DHT22;8643;48.824;11.422;2023-03-05T13:13:28;3.30;99.90
17053;DHT22;8643;48.824;11.422;2023-03-05T13:16:02;3.40;99.90
17053;DHT22;8643;48.824;11.422;2023-03-05T13:18:32;3.30;99.90
17053;DHT22;8643;48.824;11.422;2023-03-05T13:21:05;3.30;99.90
17053;DHT22;8643;48.824;11.422;2023-03-05T13:23:34;3.30;99.90
17053;DHT22;8643;48.824;11.422;2023-03-05T13:26:11;3.30;99.90
17053;DHT22;8643;48.824;11.422;2023-03-05T13:29:02;4.30;99.90
17053;DHT22;8643;48.824;11.422;2023-03-05T13:31:40;3.30;99.90
17053;DHT22;8643;48.824;11.422;2023-03-05T13:34:15;3.30;99.90
17053;DHT22;8643;48.824;11.422;2023-03-05T13:36:49;3.20;99.90
17053;DHT22;8643;48.824;11.422;2023-03-05T13:39:25;3.30;99.90
17053;DHT22;8643;48.824;11.422;2023-03-05T13:42:02;3.30;99.90
17053;DHT22;8643;48.824;11.422;2023-03-05T13:44:34;3.30;99.90
17053;DHT22;8643;48.824;11.422;2023-03-05T13:47:08;3.20;99.90
17053;DHT22;8643;48.824;11.422;2023-03-05T13:49:43;3.20;99.90
17053;DHT22;8643;48.824;11.422;2023-03-05T13:52:23;3.20;99.90
17053;DHT22;8643;48.824;11.422;2023-03-05T13:54:52;3.20;99.90
17053;DHT22;8643;48.824;11.422;2023-03-05T13:57:36;3.20;99.90
17053;DHT22;8643;48.824;11.422;2023-03-05T14:00:27;3.20;99.90
17053;DHT22;8643;48.824;11.422;2023-03-05T14:03:06;3.20;99.90
17053;DHT22;8643;48.824;11.422;2023-03-05T14:05:42;3.20;99.90
17053;DHT22;8643;48.824;11.422;2023-03-05T14:08:17;3.10;99.90
17053;DHT22;8643;48.824;11.422;2023-03-05T14:10:48;3.10;99.90
17053;DHT22;8643;48.824;11.422;2023-03-05T14:13:20;3.10;99.90
17053;DHT22;8643;48.824;11.422;2023-03-05T14:16:05;3.20;99.90
17053;DHT22;8643;48.824;11.422;2023-03-05T14:18:34;3.20;99.90
17053;DHT22;8643;48.824;11.422;2023-03-05T14:21:06;3.20;99.90
17053;DHT22;8643;48.824;11.422;2023-03-05T14:23:39;3.20;99.90
17053;DHT22;8643;48.824;11.422;2023-03-05T14:26:29;3.10;99.90
17053;DHT22;8643;48.824;11.422;2023-03-05T14:29:01;3.10;99.90
17053;DHT22;8643;48.824;11.422;2023-03-05T14:31:37;3.10;99.90
17053;DHT22;8643;48.824;11.422;2023-03-05T14:34:21;3.10;99.90
17053;DHT22;8643;48.824;11.422;2023-03-05T14:36:54;3.10;99.90
17053;DHT22;8643;48.824;11.422;2023-03-05T14:39:30;3.10;99.90
17053;DHT22;8643;48.824;11.422;2023-03-05T14:42:29;3.20;99.90
17053;DHT22;8643;48.824;11.422;2023-03-05T14:47:38;3.10;99.90
17053;DHT22;8643;48.824;11.422;2023-03-05T14:50:08;3.10;99.90
17053;DHT22;8643;48.824;11.422;2023-03-05T14:52:41;2.90;99.90
17053;DHT22;8643;48.824;11.422;2023-03-05T14:55:13;2.30;99.90
17053;DHT22;8643;48.824;11.422;2023-03-05T14:57:43;3.20;99.90
17053;DHT22;8643;48.824;11.422;2023-03-05T15:00:16;3.30;99.90
17053;DHT22;8643;48.824;11.422;2023-03-05T15:02:47;3.30;99.90
17053;DHT22;8643;48.824;11.422;2023-03-05T15:05:17;3.20;99.90
17053;DHT22;8643;48.824;11.422;2023-03-05T15:07:46;2.50;99.90
17053;DHT22;8643;48.824;11.422;2023-03-05T15:10:16;3.10;99.90
17053;DHT22;8643;48.824;11.422;2023-03-05T15:12:47;3.10;99.90
17053;DHT22;8643;48.824;11.422;2023-03-05T15:15:17;3.00;99.90
17053;DHT22;8643;48.824;11.422;2023-03-05T15:17:49;3.10;99.90
17053;DHT22;8643;48.824;11.422;2023-03-05T15:20:22;3.10;99.90
17053;DHT22;8643;48.824;11.422;2023-03-05T15:22:52;3.10;99.90
17053;DHT22;8643;48.824;11.422;2023-03-05T15:25:22;3.20;99.90
17053;DHT22;8643;48.824;11.422;2023-03-05T15:27:52;3.20;99.90
17053;DHT22;8643;48.824;11.422;2023-03-05T15:30:24;3.10;99.90
17053;DHT22;8643;48.824;11.422;2023-03-05T15:32:59;3.10;99.90
17053;DHT22;8643;48.824;11.422;2023-03-05T15:35:29;3.00;99.90
17053;DHT22;8643;48.824;11.422;2023-03-05T15:37:58;3.00;99.90
17053;DHT22;8643;48.824;11.422;2023-03-05T15:40:26;3.00;99.90
17053;DHT22;8643;48.824;11.422;2023-03-05T15:42:56;3.00;99.90
17053;DHT22;8643;48.824;11.422;2023-03-05T15:45:26;3.00;99.90
17053;DHT22;8643;48.824;11.422;2023-03-05T15:47:58;2.90;99.90
17053;DHT22;8643;48.824;11.422;2023-03-05T15:50:27;3.00;99.90
17053;DHT22;8643;48.824;11.422;2023-03-05T15:52:56;3.00;99.90
17053;DHT22;8643;48.824;11.422;2023-03-05T15:55:28;3.00;99.90
17053;DHT22;8643;48.824;11.422;2023-03-05T16:00:28;3.10;99.90
17053;DHT22;8643;48.824;11.422;2023-03-05T16:02:58;3.10;99.90
17053;DHT22;8643;48.824;11.422;2023-03-05T16:05:27;3.10;99.90
17053;DHT22;8643;48.824;11.422;2023-03-05T16:07:56;1.90;99.90
17053;DHT22;8643;48.824;11.422;2023-03-05T16:10:27;3.10;99.90
17053;DHT22;8643;48.824;11.422;2023-03-05T16:13:01;3.00;99.90
17053;DHT22;8643;48.824;11.422;2023-03-05T16:15:31;3.00;99.90
17053;DHT22;8643;48.824;11.422;2023-03-05T16:18:06;3.00;99.90
17053;DHT22;8643;48.824;11.422;2023-03-05T16:20:37;3.00;99.90
17053;DHT22;8643;48.824;11.422;2023-03-05T16:23:06;3.00;99.90
17053;DHT22;8643;48.824;11.422;2023-03-05T16:25:35;3.00;99.90
17053;DHT22;8643;48.824;11.422;2023-03-05T16:28:04;2.90;99.90
17053;DHT22;8643;48.824;11.422;2023-03-05T16:30:32;2.90;99.90
17053;DHT22;8643;48.824;11.422;2023-03-05T16:33:03;2.90;99.90
17053;DHT22;8643;48.824;11.422;2023-03-05T16:35:31;2.80;99.90
17053;DHT22;8643;48.824;11.422;2023-03-05T16:38:00;3.50;99.90
17053;DHT22;8643;48.824;11.422;2023-03-05T16:40:29;6.60;99.90
17053;DHT22;8643;48.824;11.422;2023-03-05T16:43:17;2.80;99.90
17053;DHT22;8643;48.824;11.422;2023-03-05T16:45:46;2.80;99.90
17053;DHT22;8643;48.824;11.422;2023-03-05T16:48:16;2.80;99.90
17053;DHT22;8643;48.824;11.422;2023-03-05T16:50:44;2.80;99.90
17053;DHT22;8643;48.824;11.422;2023-03-05T16:53:12;2.70;99.90
17053;DHT22;8643;48.824;11.422;2023-03-05T16:55:41;2.70;99.90
17053;DHT22;8643;48.824;11.422;2023-03-05T16:58:09;2.80;99.90
17053;DHT22;8643;48.824;11.422;2023-03-05T17:00:37;2.70;99.90
17053;DHT22;8643;48.824;11.422;2023-03-05T17:03:06;2.80;99.90
17053;DHT22;8643;48.824;11.422;2023-03-05T17:05:36;2.70;99.90
17053;DHT22;8643;48.824;11.422;2023-03-05T17:10:34;2.70;99.90
17053;DHT22;8643;48.824;11.422;2023-03-05T17:13:02;2.70;99.90
17053;DHT22;8643;48.824;11.422;2023-03-05T17:15:31;2.50;99.90
17053;DHT22;8643;48.824;11.422;2023-03-05T17:18:00;2.60;99.90